Time;durP1;ratioP1;P1;durP2;ratioP2;P2;SDS_P1;SDS_P2;PMS_P1;PMS_P2;Temp;Humidity;BMP_temperature;BMP_pressure;BME280_temperature;BME280_humidity;BME280_pressure;Samples;Min_cycle;Max_cycle;Signal;HPM_P1;HPM_P2
2022/03/25 00:00:51;;;;;;;12.93;8.13;;;8.40;60.60;;;;;;5034464;28;20057;-88
2022/03/25 00:03:17;;;;;;;14.93;7.90;;;8.40;60.50;;;;;;5034264;28;20413;-87
2022/03/25 00:05:43;;;;;;;12.95;7.93;;;8.40;60.50;;;;;;5034441;28;20044;-87
2022/03/25 00:08:08;;;;;;;11.50;7.65;;;8.40;60.50;;;;;;5035467;28;20029;-86
2022/03/25 00:10:34;;;;;;;12.20;8.13;;;8.30;60.60;;;;;;5033364;28;20084;-88
2022/03/25 00:13:00;;;;;;;16.55;8.55;;;8.20;60.60;;;;;;5026643;28;20399;-88
2022/03/25 00:15:26;;;;;;;15.05;8.30;;;8.20;60.80;;;;;;5015417;28;20033;-88
2022/03/25 00:17:52;;;;;;;13.95;8.45;;;8.10;60.80;;;;;;5017759;28;20017;-88
2022/03/25 00:20:18;;;;;;;13.07;8.30;;;8.10;60.80;;;;;;5024738;28;20022;-88
2022/03/25 00:22:43;;;;;;;16.23;9.35;;;8.10;60.70;;;;;;5029508;28;20069;-89
2022/03/25 00:25:10;;;;;;;13.82;8.48;;;8.10;60.80;;;;;;5013561;28;20037;-89
2022/03/25 00:27:36;;;;;;;13.15;8.43;;;8.10;60.90;;;;;;5013651;28;20025;-88
2022/03/25 00:30:03;;;;;;;11.95;7.70;;;8.00;60.80;;;;;;5014533;28;20072;-88
2022/03/25 00:32:29;;;;;;;15.00;8.63;;;8.10;60.80;;;;;;5014713;28;20026;-86
2022/03/25 00:34:55;;;;;;;16.45;9.02;;;8.10;60.40;;;;;;5032816;28;20032;-88
2022/03/25 00:37:21;;;;;;;13.27;7.95;;;8.00;60.10;;;;;;5037547;28;20089;-88
2022/03/25 00:39:46;;;;;;;13.15;8.48;;;8.10;60.10;;;;;;5038853;28;20029;-88
2022/03/25 00:42:13;;;;;;;10.63;7.20;;;8.00;59.90;;;;;;5037622;28;20128;-88
2022/03/25 00:44:41;;;;;;;12.85;7.35;;;8.00;59.90;;;;;;5044740;28;20097;-86
2022/03/25 00:47:07;;;;;;;10.60;7.07;;;7.90;60.10;;;;;;5044585;28;20025;-87
2022/03/25 00:49:33;;;;;;;12.93;8.40;;;7.90;60.20;;;;;;5037631;28;20029;-86
2022/03/25 00:51:59;;;;;;;12.50;8.43;;;7.80;60.20;;;;;;5027868;28;20540;-88
2022/03/25 00:54:25;;;;;;;12.45;7.72;;;7.70;60.30;;;;;;5019342;28;20092;-88
2022/03/25 00:56:51;;;;;;;13.07;7.50;;;7.70;60.90;;;;;;5019252;28;20058;-88
2022/03/25 00:59:18;;;;;;;10.38;6.85;;;7.60;61.30;;;;;;5021023;28;20030;-87
2022/03/25 01:01:43;;;;;;;12.18;7.32;;;7.60;61.50;;;;;;5019696;28;20341;-88
2022/03/25 01:04:09;;;;;;;10.90;6.90;;;7.50;61.50;;;;;;5026362;28;20029;-87
2022/03/25 01:06:35;;;;;;;11.32;7.63;;;7.50;61.60;;;;;;5050471;28;20036;-87
2022/03/25 01:09:02;;;;;;;11.50;6.95;;;7.50;61.50;;;;;;5047632;28;20090;-87
2022/03/25 01:11:28;;;;;;;12.25;7.60;;;7.40;61.40;;;;;;5052080;28;20406;-87
2022/03/25 01:13:54;;;;;;;10.32;6.68;;;7.30;61.40;;;;;;5051638;28;20032;-86
2022/03/25 01:16:20;;;;;;;11.07;7.40;;;7.30;61.40;;;;;;5049417;28;20026;-86
2022/03/25 01:18:46;;;;;;;13.35;8.13;;;7.40;61.20;;;;;;5048993;28;20066;-86
2022/03/25 01:21:11;;;;;;;13.90;7.85;;;7.30;60.80;;;;;;5046561;28;20057;-85
2022/03/25 01:23:37;;;;;;;10.82;7.45;;;7.30;60.90;;;;;;5024311;28;20041;-87
2022/03/25 01:26:04;;;;;;;11.57;7.28;;;7.30;61.10;;;;;;5039721;28;20041;-86
2022/03/25 01:28:34;;;;;;;9.52;6.68;;;7.20;61.30;;;;;;5047507;28;20092;-87
2022/03/25 01:31:01;;;;;;;10.52;7.07;;;7.20;61.60;;;;;;5051537;28;20043;-85
2022/03/25 01:33:28;;;;;;;9.93;6.75;;;7.10;61.80;;;;;;5041153;28;20030;-86
2022/03/25 01:35:55;;;;;;;11.18;7.30;;;7.00;62.10;;;;;;5036886;28;20026;-87
2022/03/25 01:38:21;;;;;;;12.30;7.43;;;7.00;62.50;;;;;;5035690;28;20121;-87
2022/03/25 01:40:47;;;;;;;12.02;7.13;;;7.00;62.60;;;;;;5049161;28;20041;-83
2022/03/25 01:43:12;;;;;;;11.77;6.60;;;7.00;62.80;;;;;;5048997;28;20037;-88
2022/03/25 01:45:38;;;;;;;9.80;6.43;;;7.00;63.00;;;;;;5044229;28;20044;-89
2022/03/25 01:48:09;;;;;;;10.25;6.35;;;6.90;63.20;;;;;;5035156;28;20036;-87
2022/03/25 01:50:36;;;;;;;11.90;7.13;;;6.90;63.40;;;;;;5025131;28;20022;-87
2022/03/25 01:53:03;;;;;;;9.45;6.28;;;6.90;63.70;;;;;;5016821;28;20054;-87
2022/03/25 01:55:37;;;;;;;8.88;6.22;;;6.90;63.90;;;;;;5017221;28;20029;-87
2022/03/25 01:58:05;;;;;;;10.50;6.93;;;6.90;64.00;;;;;;5016061;28;20435;-88
2022/03/25 02:00:31;;;;;;;12.90;7.43;;;6.80;64.10;;;;;;5015781;28;20029;-88
2022/03/25 02:02:57;;;;;;;12.73;7.32;;;6.70;64.40;;;;;;5017878;28;20109;-85
2022/03/25 02:05:23;;;;;;;15.68;7.97;;;6.70;64.60;;;;;;5016712;28;20064;-88
2022/03/25 02:07:49;;;;;;;12.90;7.82;;;6.70;64.80;;;;;;5033785;28;20033;-87
2022/03/25 02:10:15;;;;;;;11.07;7.45;;;6.60;65.00;;;;;;5036750;28;20017;-88
2022/03/25 02:12:41;;;;;;;13.20;6.88;;;6.60;65.30;;;;;;5054502;28;20013;-86
2022/03/25 02:15:08;;;;;;;12.32;6.85;;;6.50;65.40;;;;;;5050482;28;20048;-87
2022/03/25 02:17:34;;;;;;;11.00;6.35;;;6.50;65.70;;;;;;5025458;28;20044;-87
2022/03/25 02:20:00;;;;;;;9.65;6.55;;;6.40;65.90;;;;;;5027722;28;20474;-87
2022/03/25 02:22:25;;;;;;;8.48;6.13;;;6.40;66.10;;;;;;5033040;28;20088;-87
2022/03/25 02:24:51;;;;;;;8.82;6.28;;;6.40;66.30;;;;;;5015526;28;20026;-88
2022/03/25 02:27:18;;;;;;;10.93;6.57;;;6.40;66.70;;;;;;5030759;28;20073;-86
2022/03/25 02:29:46;;;;;;;10.15;6.43;;;6.40;66.70;;;;;;5030399;28;20037;-87
2022/03/25 02:32:12;;;;;;;10.85;6.53;;;6.30;66.80;;;;;;5032050;28;20041;-86
2022/03/25 02:34:41;;;;;;;10.65;7.13;;;6.30;66.90;;;;;;5047638;28;20025;-84
2022/03/25 02:37:07;;;;;;;10.55;6.20;;;6.30;67.10;;;;;;5052223;28;20097;-87
2022/03/25 02:39:33;;;;;;;10.55;6.63;;;6.30;67.20;;;;;;5052768;28;20041;-85
2022/03/25 02:41:59;;;;;;;10.40;6.00;;;6.20;67.50;;;;;;5053422;28;20041;-84
2022/03/25 02:44:26;;;;;;;11.85;7.00;;;6.10;67.80;;;;;;5040864;28;20090;-87
2022/03/25 02:46:51;;;;;;;12.68;7.70;;;6.10;68.00;;;;;;5029279;28;20022;-85
2022/03/25 02:49:18;;;;;;;13.45;6.80;;;6.10;68.20;;;;;;5047456;28;20113;-89
2022/03/25 02:51:43;;;;;;;11.32;6.57;;;6.10;68.40;;;;;;5042686;28;20021;-88
2022/03/25 02:54:09;;;;;;;14.60;7.75;;;6.10;68.50;;;;;;5041621;28;20071;-86
2022/03/25 02:56:35;;;;;;;12.55;7.63;;;6.10;68.40;;;;;;5039661;28;20025;-88
2022/03/25 02:59:01;;;;;;;11.55;6.53;;;6.10;68.40;;;;;;5037987;28;20029;-87
2022/03/25 03:01:27;;;;;;;12.07;7.05;;;6.10;68.40;;;;;;5038200;28;20112;-87
2022/03/25 03:03:53;;;;;;;10.60;7.05;;;6.10;68.20;;;;;;5047166;28;20030;-87
2022/03/25 03:06:19;;;;;;;12.30;7.18;;;6.10;68.20;;;;;;5020643;28;20038;-85
2022/03/25 03:08:45;;;;;;;12.60;7.45;;;6.10;68.00;;;;;;5018575;28;20026;-86
2022/03/25 03:11:11;;;;;;;11.38;6.55;;;6.10;67.90;;;;;;5017323;28;20040;-87
2022/03/25 03:13:38;;;;;;;11.15;6.97;;;6.00;67.90;;;;;;5017718;28;20022;-86
2022/03/25 03:16:04;;;;;;;10.80;6.03;;;6.00;68.00;;;;;;5016106;28;20029;-87
2022/03/25 03:18:30;;;;;;;10.85;6.68;;;6.00;67.80;;;;;;5025543;28;20048;-88
2022/03/25 03:20:56;;;;;;;11.88;7.35;;;6.00;67.80;;;;;;5026456;28;20135;-87
2022/03/25 03:23:22;;;;;;;13.63;7.85;;;6.00;67.90;;;;;;5035788;28;20040;-87
2022/03/25 03:25:47;;;;;;;11.50;6.43;;;6.00;67.90;;;;;;5025307;28;20026;-87
2022/03/25 03:28:13;;;;;;;12.13;6.93;;;6.00;68.00;;;;;;5013690;28;20496;-87
2022/03/25 03:30:39;;;;;;;10.80;6.40;;;6.00;68.10;;;;;;5014044;28;20030;-87
2022/03/25 03:33:05;;;;;;;9.70;6.30;;;5.90;67.90;;;;;;5016396;28;20065;-90
2022/03/25 03:35:37;;;;;;;8.65;6.50;;;5.90;67.90;;;;;;5015264;28;20028;-88
2022/03/25 03:38:04;;;;;;;10.43;6.90;;;5.90;68.00;;;;;;5013940;28;20403;-88
2022/03/25 03:40:30;;;;;;;10.70;6.25;;;5.90;68.20;;;;;;5016129;28;20501;-89
2022/03/25 03:42:56;;;;;;;8.82;5.63;;;5.80;68.30;;;;;;5017316;28;20044;-86
2022/03/25 03:45:21;;;;;;;9.27;5.68;;;5.80;68.40;;;;;;5033343;28;20017;-85
2022/03/25 03:47:47;;;;;;;11.32;6.13;;;5.80;68.40;;;;;;5025062;28;20493;-87
2022/03/25 03:50:15;;;;;;;8.75;5.63;;;5.80;68.50;;;;;;5027266;28;20064;-89
2022/03/25 03:52:42;;;;;;;10.82;6.13;;;5.80;68.50;;;;;;5033890;28;20343;-87
2022/03/25 03:55:09;;;;;;;9.98;6.25;;;5.80;68.50;;;;;;5035592;28;20478;-86
2022/03/25 03:57:36;;;;;;;10.63;6.22;;;5.80;68.60;;;;;;5018808;28;20096;-86
2022/03/25 04:00:05;;;;;;;8.93;5.88;;;5.80;68.70;;;;;;5013569;28;20054;-87
2022/03/25 04:02:30;;;;;;;11.32;5.93;;;5.70;68.70;;;;;;5014923;28;20026;-88
2022/03/25 04:04:57;;;;;;;11.18;6.20;;;5.70;68.90;;;;;;5014664;28;20060;-86
2022/03/25 04:07:23;;;;;;;10.48;6.72;;;5.70;69.20;;;;;;5016249;28;20088;-88
2022/03/25 04:09:49;;;;;;;8.98;5.80;;;5.70;69.30;;;;;;5013228;28;20030;-87
2022/03/25 04:12:15;;;;;;;9.90;6.03;;;5.70;69.50;;;;;;5015610;28;20032;-86
2022/03/25 04:14:40;;;;;;;12.23;5.82;;;5.70;69.50;;;;;;5019489;28;20018;-88
2022/03/25 04:17:07;;;;;;;9.63;5.63;;;5.70;69.40;;;;;;5019549;28;20515;-87
2022/03/25 04:19:32;;;;;;;12.48;6.03;;;5.60;69.50;;;;;;5029213;28;20097;-86
2022/03/25 04:21:58;;;;;;;10.93;6.53;;;5.60;69.70;;;;;;5018325;28;20076;-88
2022/03/25 04:24:24;;;;;;;9.73;6.28;;;5.60;70.00;;;;;;5019536;28;20033;-88
2022/03/25 04:26:53;;;;;;;10.57;6.05;;;5.60;70.10;;;;;;5020029;28;20030;-82
2022/03/25 04:29:18;;;;;;;11.07;6.15;;;5.50;70.40;;;;;;5023724;28;20067;-81
2022/03/25 04:31:45;;;;;;;12.23;6.85;;;5.50;70.50;;;;;;5018843;28;20282;-82
2022/03/25 04:34:11;;;;;;;11.45;6.85;;;5.50;70.80;;;;;;5019229;28;20037;-82
2022/03/25 04:36:37;;;;;;;10.63;6.20;;;5.50;70.90;;;;;;5019551;28;20034;-82
2022/03/25 04:39:03;;;;;;;9.35;5.90;;;5.40;71.00;;;;;;5023637;28;20029;-82
2022/03/25 04:41:32;;;;;;;10.98;5.95;;;5.40;71.10;;;;;;5020184;28;20065;-81
2022/03/25 04:43:58;;;;;;;8.95;5.90;;;5.40;71.20;;;;;;5020837;28;20470;-82
2022/03/25 04:46:23;;;;;;;9.40;5.65;;;5.40;71.30;;;;;;5019952;28;20034;-83
2022/03/25 04:48:52;;;;;;;8.77;5.90;;;5.40;71.40;;;;;;5025811;28;20059;-82
2022/03/25 04:51:18;;;;;;;8.93;5.28;;;5.40;71.30;;;;;;5029660;28;20025;-82
2022/03/25 04:53:44;;;;;;;10.93;6.10;;;5.40;71.20;;;;;;5018626;28;20029;-83
2022/03/25 04:56:10;;;;;;;13.80;6.13;;;5.40;71.30;;;;;;5020268;28;20475;-83
2022/03/25 04:58:36;;;;;;;10.95;5.97;;;5.30;71.50;;;;;;5025503;28;20033;-80
2022/03/25 05:01:02;;;;;;;9.55;5.97;;;5.30;71.70;;;;;;5042102;28;20075;-81
2022/03/25 05:03:28;;;;;;;10.75;5.88;;;5.30;71.80;;;;;;5039761;28;20038;-80
2022/03/25 05:05:53;;;;;;;7.35;4.72;;;5.30;72.00;;;;;;5039794;28;20072;-80
2022/03/25 05:08:19;;;;;;;9.80;5.25;;;5.30;72.10;;;;;;5041859;28;20491;-82
2022/03/25 05:10:45;;;;;;;7.60;5.32;;;5.30;72.20;;;;;;5042432;28;20458;-82
2022/03/25 05:13:11;;;;;;;7.47;4.63;;;5.30;72.30;;;;;;5042606;28;20024;-83
2022/03/25 05:15:37;;;;;;;10.13;5.32;;;5.30;72.40;;;;;;5046829;28;20089;-80
2022/03/25 05:18:03;;;;;;;10.32;5.85;;;5.40;72.50;;;;;;5056501;28;20041;-80
2022/03/25 05:20:28;;;;;;;10.43;5.90;;;5.40;72.30;;;;;;5046045;28;20034;-78
2022/03/25 05:22:54;;;;;;;9.25;5.63;;;5.40;72.30;;;;;;5043600;28;20044;-82
2022/03/25 05:25:20;;;;;;;8.85;5.32;;;5.40;72.20;;;;;;5039438;28;20022;-82
2022/03/25 05:27:54;;;;;;;8.45;5.28;;;5.50;72.20;;;;;;5039425;28;20037;-81
2022/03/25 05:30:26;;;;;;;7.53;4.63;;;5.50;72.10;;;;;;5039622;28;20025;-81
2022/03/25 05:32:52;;;;;;;10.30;5.43;;;5.50;72.00;;;;;;5042248;28;20029;-82
2022/03/25 05:35:19;;;;;;;7.50;4.78;;;5.60;72.10;;;;;;5040796;28;20025;-82
2022/03/25 05:37:45;;;;;;;9.50;5.47;;;5.60;72.00;;;;;;5039091;28;20025;-82
2022/03/25 05:40:12;;;;;;;8.27;5.28;;;5.70;72.00;;;;;;5034208;28;20036;-81
2022/03/25 05:42:39;;;;;;;13.40;6.07;;;5.70;72.00;;;;;;5022272;28;20037;-81
2022/03/25 05:45:06;;;;;;;10.27;5.40;;;5.80;72.10;;;;;;5018662;28;20389;-81
2022/03/25 05:47:32;;;;;;;7.18;5.20;;;5.80;72.20;;;;;;5020219;28;20022;-80
2022/03/25 05:49:57;;;;;;;11.55;5.90;;;5.80;72.30;;;;;;5019479;28;20414;-81
2022/03/25 05:52:24;;;;;;;10.00;6.18;;;5.90;72.40;;;;;;5030041;28;20025;-81
2022/03/25 05:54:50;;;;;;;9.38;5.65;;;5.90;72.20;;;;;;5034192;28;20052;-81
2022/03/25 05:57:16;;;;;;;10.60;5.47;;;5.90;72.10;;;;;;5042439;28;20101;-82
2022/03/25 05:59:42;;;;;;;8.93;5.25;;;6.00;71.80;;;;;;5043530;28;20025;-81
2022/03/25 06:02:08;;;;;;;8.73;5.53;;;6.10;71.30;;;;;;5044283;28;20033;-82
2022/03/25 06:04:34;;;;;;;8.57;5.47;;;6.20;70.70;;;;;;5044902;28;20159;-81
2022/03/25 06:07:00;;;;;;;6.65;4.57;;;6.20;70.30;;;;;;5046870;28;20105;-81
2022/03/25 06:09:26;;;;;;;13.43;6.10;;;6.30;70.10;;;;;;5043907;28;20029;-82
2022/03/25 06:11:51;;;;;;;10.57;6.30;;;6.40;69.80;;;;;;5033298;28;20077;-81
2022/03/25 06:14:17;;;;;;;10.07;6.20;;;6.50;69.50;;;;;;5027052;28;20483;-81
2022/03/25 06:16:44;;;;;;;9.93;7.05;;;6.50;69.10;;;;;;5026985;28;20052;-82
2022/03/25 06:19:10;;;;;;;13.55;7.43;;;6.60;68.80;;;;;;5018001;28;20104;-82
2022/03/25 06:21:36;;;;;;;8.85;6.18;;;6.70;68.60;;;;;;5023186;28;20026;-80
2022/03/25 06:24:02;;;;;;;13.07;6.25;;;6.80;68.40;;;;;;5039430;28;20021;-81
2022/03/25 06:26:27;;;;;;;12.18;6.97;;;6.90;68.20;;;;;;5044145;28;20033;-82
2022/03/25 06:28:54;;;;;;;17.05;7.03;;;7.00;68.00;;;;;;5039600;28;20067;-84
2022/03/25 06:31:20;;;;;;;14.75;7.45;;;7.10;67.50;;;;;;5039450;28;20083;-82
2022/03/25 06:33:49;;;;;;;15.90;7.22;;;7.20;67.30;;;;;;5039130;28;20049;-82
2022/03/25 06:36:14;;;;;;;12.55;7.25;;;7.20;67.00;;;;;;5039146;28;20084;-82
2022/03/25 06:38:41;;;;;;;9.13;6.00;;;7.40;66.90;;;;;;5037784;28;20026;-82
2022/03/25 06:41:07;;;;;;;10.90;6.50;;;7.50;66.80;;;;;;5038232;28;20052;-83
2022/03/25 06:43:34;;;;;;;10.98;5.78;;;7.60;66.50;;;;;;5021322;28;20022;-83
2022/03/25 06:46:00;;;;;;;14.02;6.25;;;7.70;66.20;;;;;;5026657;28;20031;-83
2022/03/25 06:48:26;;;;;;;10.20;5.88;;;7.70;65.80;;;;;;5037001;28;20665;-83
2022/03/25 06:50:53;;;;;;;8.43;5.35;;;7.90;65.70;;;;;;5030742;28;20065;-83
2022/03/25 06:53:19;;;;;;;7.63;4.72;;;8.00;65.50;;;;;;5019334;28;20037;-82
2022/03/25 06:55:45;;;;;;;14.18;7.22;;;8.10;65.10;;;;;;5024893;28;20040;-83
2022/03/25 06:58:11;;;;;;;10.95;7.47;;;8.30;63.90;;;;;;5017293;28;20037;-83
2022/03/25 07:00:37;;;;;;;11.02;6.20;;;8.30;63.20;;;;;;5017380;28;20097;-83
2022/03/25 07:03:04;;;;;;;9.18;6.20;;;8.40;62.90;;;;;;5021889;28;20032;-83
2022/03/25 07:05:30;;;;;;;11.45;7.03;;;8.60;62.70;;;;;;5036300;28;20026;-83
2022/03/25 07:07:58;;;;;;;10.95;6.50;;;8.70;62.30;;;;;;5035256;28;20028;-82
2022/03/25 07:10:26;;;;;;;9.90;6.45;;;8.80;61.60;;;;;;5035421;28;20052;-83
2022/03/25 07:12:53;;;;;;;9.52;6.47;;;8.90;61.10;;;;;;5035450;28;20129;-83
2022/03/25 07:15:20;;;;;;;9.80;6.25;;;9.00;60.80;;;;;;5035989;28;20049;-83
2022/03/25 07:17:46;;;;;;;15.38;9.10;;;9.10;60.50;;;;;;5036705;28;20037;-82
2022/03/25 07:20:14;;;;;;;22.48;9.75;;;9.30;60.00;;;;;;5037805;28;20030;-82
2022/03/25 07:22:45;;;;;;;19.08;10.75;;;9.40;58.90;;;;;;5036944;28;20340;-84
2022/03/25 07:25:11;;;;;;;18.10;10.98;;;9.50;57.20;;;;;;5028481;28;20014;-83
2022/03/25 07:27:38;;;;;;;19.60;11.20;;;9.60;56.60;;;;;;5018142;28;20018;-83
2022/03/25 07:30:04;;;;;;;21.08;12.90;;;9.70;56.50;;;;;;5019796;28;20044;-82
2022/03/25 07:32:30;;;;;;;19.20;12.15;;;9.80;55.50;;;;;;5027314;28;20048;-81
2022/03/25 07:34:56;;;;;;;19.52;12.75;;;9.90;54.80;;;;;;5040284;28;20144;-82
2022/03/25 07:37:22;;;;;;;21.20;12.07;;;10.10;54.90;;;;;;5037835;28;20029;-81
2022/03/25 07:39:48;;;;;;;23.08;12.10;;;10.20;54.50;;;;;;5036100;28;20109;-81
2022/03/25 07:42:14;;;;;;;20.80;11.70;;;10.30;54.40;;;;;;5037938;28;20473;-81
2022/03/25 07:44:40;;;;;;;15.55;10.30;;;10.50;53.70;;;;;;5021548;28;20032;-82
2022/03/25 07:47:07;;;;;;;18.38;10.68;;;10.60;53.40;;;;;;5019667;28;20033;-81
2022/03/25 07:49:38;;;;;;;16.80;11.05;;;10.70;53.00;;;;;;5022173;28;20028;-82
2022/03/25 07:52:08;;;;;;;17.23;11.20;;;10.90;52.60;;;;;;5027644;28;20025;-83
2022/03/25 07:54:35;;;;;;;19.35;11.80;;;11.10;52.10;;;;;;5027860;28;20022;-84
2022/03/25 07:57:01;;;;;;;22.27;12.65;;;11.20;51.60;;;;;;5043889;28;20029;-83
2022/03/25 07:59:29;;;;;;;24.00;13.90;;;11.30;51.50;;;;;;5043547;28;20034;-83
2022/03/25 08:01:56;;;;;;;24.30;13.80;;;11.40;50.60;;;;;;5042694;28;20065;-83
2022/03/25 08:04:25;;;;;;;21.00;12.45;;;11.50;50.40;;;;;;5043065;28;20053;-86
2022/03/25 08:06:55;;;;;;;21.25;12.60;;;11.50;50.60;;;;;;5043023;28;20026;-85
2022/03/25 08:09:21;;;;;;;21.20;13.77;;;11.60;50.50;;;;;;5043541;28;20021;-85
2022/03/25 08:11:47;;;;;;;19.65;12.30;;;11.90;49.50;;;;;;5042219;28;20025;-84
2022/03/25 08:14:14;;;;;;;20.13;13.13;;;12.00;48.70;;;;;;5037784;28;20117;-84
2022/03/25 08:16:42;;;;;;;23.17;14.10;;;12.20;48.40;;;;;;5041288;28;20017;-84
2022/03/25 08:19:15;;;;;;;22.10;13.52;;;12.40;47.90;;;;;;5041482;28;20026;-83
2022/03/25 08:21:40;;;;;;;17.92;12.07;;;12.40;47.70;;;;;;5022466;28;20037;-85
2022/03/25 08:29:36;;;;;;;21.60;13.77;;;13.20;46.70;;;;;;5022494;28;20045;-85
2022/03/25 08:32:03;;;;;;;20.33;13.18;;;13.20;45.40;;;;;;5020127;28;20030;-84
2022/03/25 08:34:32;;;;;;;27.10;13.93;;;13.30;45.70;;;;;;5022972;28;20041;-84
2022/03/25 08:36:58;;;;;;;21.23;13.50;;;13.50;45.30;;;;;;5022580;28;20026;-82
2022/03/25 08:39:24;;;;;;;25.20;13.40;;;13.70;45.20;;;;;;5022533;28;20053;-81
2022/03/25 08:41:49;;;;;;;21.63;13.70;;;13.90;44.70;;;;;;5021983;28;20029;-83
2022/03/25 08:44:15;;;;;;;27.02;15.45;;;13.90;44.30;;;;;;5019468;28;20028;-84
2022/03/25 08:46:41;;;;;;;24.02;15.02;;;13.90;44.20;;;;;;5019391;28;20093;-83
2022/03/25 08:49:10;;;;;;;19.50;13.13;;;14.10;43.70;;;;;;5021200;28;20026;-85
2022/03/25 08:51:36;;;;;;;19.67;12.95;;;14.20;43.70;;;;;;5028486;28;20025;-86
2022/03/25 08:54:02;;;;;;;18.05;13.40;;;14.60;43.40;;;;;;5038484;28;20037;-85
2022/03/25 08:56:28;;;;;;;24.05;15.68;;;14.90;42.40;;;;;;5024059;28;20022;-85
2022/03/25 08:58:58;;;;;;;28.88;16.48;;;15.20;41.70;;;;;;5027534;28;20025;-85
2022/03/25 09:01:24;;;;;;;24.50;15.50;;;15.40;40.20;;;;;;5027756;28;20041;-84
2022/03/25 09:03:50;;;;;;;20.02;14.63;;;15.40;40.30;;;;;;5026409;28;20025;-85
2022/03/25 09:06:17;;;;;;;26.70;15.50;;;15.40;40.10;;;;;;5027533;28;20094;-85
2022/03/25 09:08:43;;;;;;;24.02;15.48;;;15.40;40.20;;;;;;5031440;28;20057;-84
2022/03/25 09:11:10;;;;;;;22.50;15.50;;;15.60;40.00;;;;;;5034579;28;20113;-86
2022/03/25 09:13:36;;;;;;;23.17;15.75;;;15.90;39.70;;;;;;5030833;28;20037;-84
2022/03/25 09:16:03;;;;;;;21.40;14.80;;;16.00;38.40;;;;;;5029884;28;20026;-87
2022/03/25 09:18:28;;;;;;;19.25;14.57;;;16.20;38.40;;;;;;5028268;28;20208;-85
2022/03/25 09:20:54;;;;;;;24.90;16.35;;;16.40;38.20;;;;;;5030976;28;20010;-86
2022/03/25 09:23:20;;;;;;;22.50;15.50;;;16.70;37.50;;;;;;5045779;28;20037;-85
2022/03/25 09:25:46;;;;;;;29.42;17.45;;;16.70;37.20;;;;;;5054045;28;20116;-85
2022/03/25 09:28:12;;;;;;;25.83;16.58;;;16.70;36.90;;;;;;5055676;28;20009;-86
2022/03/25 09:30:39;;;;;;;30.83;18.02;;;16.80;37.10;;;;;;5049999;28;20045;-86
2022/03/25 09:33:07;;;;;;;25.30;17.25;;;16.80;36.60;;;;;;5044865;28;20116;-85
2022/03/25 09:35:34;;;;;;;27.83;16.73;;;16.90;36.50;;;;;;5045674;28;20129;-84
2022/03/25 09:38:00;;;;;;;26.50;16.08;;;17.00;36.60;;;;;;5036843;28;20059;-85
2022/03/25 09:40:27;;;;;;;25.08;17.23;;;17.20;36.40;;;;;;5028655;28;20573;-84
2022/03/25 09:42:55;;;;;;;27.85;17.83;;;17.40;35.80;;;;;;5022822;28;20041;-85
2022/03/25 09:45:23;;;;;;;26.33;17.02;;;17.40;35.70;;;;;;5022788;28;20025;-84
2022/03/25 09:47:56;;;;;;;42.53;20.42;;;17.40;36.00;;;;;;5025009;28;20013;-85
2022/03/25 09:50:28;;;;;;;30.92;18.08;;;17.50;36.00;;;;;;5034859;28;20049;-85
2022/03/25 09:52:54;;;;;;;30.70;19.52;;;17.70;36.20;;;;;;5032678;28;20029;-87
2022/03/25 09:55:20;;;;;;;31.10;18.77;;;17.80;35.80;;;;;;5052205;28;20040;-86
2022/03/25 09:57:47;;;;;;;33.22;18.50;;;17.90;35.70;;;;;;5050120;28;20030;-84
2022/03/25 10:00:18;;;;;;;26.48;16.80;;;18.00;35.70;;;;;;5054144;28;20041;-87
2022/03/25 10:02:47;;;;;;;33.05;22.27;;;18.00;36.10;;;;;;5047638;28;20021;-84
2022/03/25 10:05:18;;;;;;;26.35;17.92;;;18.20;36.20;;;;;;5048472;28;20080;-86
2022/03/25 10:07:50;;;;;;;31.23;19.02;;;18.30;36.20;;;;;;5044835;28;20116;-85
2022/03/25 10:10:17;;;;;;;;;;;18.30;36.00;;;;;;5044564;28;20025;-83
2022/03/25 10:12:48;;;;;;;28.15;19.17;;;18.00;35.60;;;;;;5044149;28;19916;-85
2022/03/25 10:15:22;;;;;;;25.75;18.58;;;17.80;35.80;;;;;;5045888;28;20148;-84
2022/03/25 10:18:03;;;;;;;27.98;17.15;;;17.60;35.50;;;;;;5043889;28;20025;-85
2022/03/25 10:20:32;;;;;;;25.00;18.42;;;17.60;35.60;;;;;;5043774;28;20022;-84
2022/03/25 10:23:04;;;;;;;25.25;18.08;;;17.60;35.80;;;;;;5044288;28;20041;-86
2022/03/25 10:25:51;;;;;;;25.55;17.60;;;17.80;35.50;;;;;;5044600;28;20021;-85
2022/03/25 10:28:26;;;;;;;21.65;15.68;;;17.80;35.20;;;;;;5043744;28;20025;-86
2022/03/25 10:30:57;;;;;;;26.00;18.83;;;17.90;35.70;;;;;;5045275;28;20026;-85
2022/03/25 10:33:42;;;;;;;28.50;18.25;;;18.30;35.80;;;;;;5043586;28;20029;-85
2022/03/25 10:36:10;;;;;;;40.20;21.13;;;18.70;35.30;;;;;;5043331;28;20029;-85
2022/03/25 10:38:58;;;;;;;27.90;18.55;;;19.00;34.70;;;;;;5046633;28;20025;-83
2022/03/25 10:41:50;;;;;;;25.38;17.88;;;19.20;34.50;;;;;;5053621;28;20063;-85
2022/03/25 10:44:16;;;;;;;28.15;19.13;;;19.30;34.50;;;;;;5053418;28;20149;-85
2022/03/25 10:46:46;;;;;;;28.58;17.25;;;19.10;34.60;;;;;;5053615;28;20052;-87
2022/03/25 10:49:18;;;;;;;29.15;19.98;;;19.20;34.20;;;;;;5047897;28;20033;-85
2022/03/25 10:51:52;;;;;;;29.48;19.92;;;19.00;34.80;;;;;;5046308;28;20103;-85
2022/03/25 10:54:23;;;;;;;32.20;20.65;;;18.80;35.40;;;;;;5044385;28;20028;-85
2022/03/25 10:56:51;;;;;;;27.13;19.38;;;18.90;35.40;;;;;;5041750;28;20025;-84
2022/03/25 10:59:22;;;;;;;25.58;18.88;;;19.10;35.50;;;;;;5040381;28;20035;-86
2022/03/25 11:01:56;;;;;;;30.58;19.30;;;19.20;35.60;;;;;;5041560;28;20040;-84
2022/03/25 11:04:22;;;;;;;30.02;19.63;;;19.10;35.10;;;;;;5040904;28;20091;-87
2022/03/25 11:06:49;;;;;;;33.65;19.92;;;19.10;35.50;;;;;;5041095;28;20025;-85
2022/03/25 11:09:17;;;;;;;28.58;19.70;;;19.00;35.20;;;;;;5040632;28;20032;-86
2022/03/25 11:11:48;;;;;;;28.67;19.52;;;18.90;34.30;;;;;;5040252;28;20030;-85
2022/03/25 11:14:14;;;;;;;27.35;18.40;;;18.90;34.70;;;;;;5040580;28;20022;-87
2022/03/25 11:16:42;;;;;;;24.58;18.55;;;18.90;34.50;;;;;;5041641;28;20025;-86
2022/03/25 11:19:12;;;;;;;24.08;16.88;;;19.00;34.00;;;;;;5042207;28;20032;-83
2022/03/25 11:24:19;;;;;;;25.33;17.75;;;19.00;33.30;;;;;;5068610;22;20509;-77
2022/03/25 11:26:48;;;;;;;24.80;18.63;;;19.00;33.40;;;;;;5020568;28;20025;-77
2022/03/25 11:29:17;;;;;;;23.85;17.98;;;19.00;33.70;;;;;;5019912;28;20025;-78
2022/03/25 11:32:04;;;;;;;22.70;16.98;;;19.20;33.90;;;;;;5040244;28;20322;-78
2022/03/25 11:34:30;;;;;;;28.75;19.27;;;19.40;33.90;;;;;;5023208;28;20021;-77
2022/03/25 11:37:14;;;;;;;32.70;21.80;;;19.60;33.40;;;;;;5019642;28;20140;-78
2022/03/25 11:39:40;;;;;;;34.92;22.60;;;19.90;33.90;;;;;;5019982;28;20036;-76
2022/03/25 11:42:07;;;;;;;31.55;20.73;;;19.80;34.00;;;;;;5029484;28;20053;-77
2022/03/25 11:44:33;;;;;;;31.15;21.20;;;19.70;34.40;;;;;;5042623;28;20397;-77
2022/03/25 11:46:59;;;;;;;31.25;20.25;;;19.60;34.40;;;;;;5042616;28;20018;-78
2022/03/25 11:49:27;;;;;;;28.05;20.02;;;19.80;34.00;;;;;;5040929;28;20022;-79
2022/03/25 11:51:53;;;;;;;24.15;18.15;;;20.10;33.90;;;;;;5041498;28;20029;-77
2022/03/25 11:54:34;;;;;;;25.35;19.17;;;20.70;33.00;;;;;;5041654;28;20097;-78
2022/03/25 11:57:01;;;;;;;22.45;17.15;;;;;;;;;;5039220;28;20026;-79
2022/03/25 11:59:49;;;;;;;22.27;16.13;;;21.70;30.60;;;;;;5039950;28;20026;-77
2022/03/25 12:02:36;;;;;;;22.55;17.40;;;21.70;31.40;;;;;;5041299;28;20109;-78
2022/03/25 12:05:05;;;;;;;24.80;18.60;;;21.30;30.50;;;;;;5041899;28;20032;-77
2022/03/25 12:07:31;;;;;;;27.55;19.35;;;21.00;31.20;;;;;;5042075;28;20371;-78
2022/03/25 12:09:58;;;;;;;24.10;19.08;;;20.60;31.30;;;;;;5037998;28;20033;-77
2022/03/25 12:12:53;;;;;;;24.75;17.20;;;20.30;31.90;;;;;;5042311;28;20040;-79
2022/03/25 12:15:20;;;;;;;25.88;17.25;;;20.10;32.30;;;;;;5037386;28;20163;-77
2022/03/25 12:17:45;;;;;;;23.17;17.77;;;19.90;31.90;;;;;;5041632;28;20084;-78
2022/03/25 12:20:11;;;;;;;22.70;17.63;;;19.80;32.00;;;;;;5041067;28;20116;-78
2022/03/25 12:22:38;;;;;;;24.20;17.77;;;19.70;32.00;;;;;;5036664;28;20509;-78
2022/03/25 12:25:13;;;;;;;24.60;18.00;;;19.70;32.50;;;;;;5040030;28;20029;-77
2022/03/25 12:27:39;;;;;;;25.90;17.38;;;19.70;32.30;;;;;;5041215;28;20024;-78
2022/03/25 12:30:07;;;;;;;23.98;17.33;;;20.00;32.10;;;;;;5040751;28;20033;-78
2022/03/25 12:32:35;;;;;;;18.33;14.50;;;20.20;31.10;;;;;;5041393;28;20104;-79
2022/03/25 12:35:16;;;;;;;21.63;16.05;;;20.20;31.50;;;;;;5046205;28;20085;-78
2022/03/25 12:37:53;;;;;;;19.20;14.52;;;20.20;31.50;;;;;;5046184;28;20025;-78
2022/03/25 12:40:23;;;;;;;19.55;15.43;;;20.30;31.60;;;;;;5045817;28;20081;-78
2022/03/25 12:42:57;;;;;;;22.58;16.98;;;20.30;31.40;;;;;;5043463;28;20026;-77
2022/03/25 12:45:32;;;;;;;22.65;16.98;;;20.30;31.00;;;;;;5046061;28;20041;-77
2022/03/25 12:48:10;;;;;;;19.10;14.02;;;20.20;30.60;;;;;;5045727;28;20026;-78
2022/03/25 12:50:36;;;;;;;21.38;14.95;;;20.20;30.10;;;;;;5052499;28;20060;-78